sensor_id;sensor_type;location;lat;lon;timestamp;P1;P2;P0
84646;PMS5003;74876;52.404;16.896;2024-03-23T01:00:09;31.176470588235293;30.0;14.117647058823529
84646;PMS5003;74876;52.404;16.896;2024-03-23T01:15:10;26.482823398364012;26.482823398364012;11.034509749318337
84646;PMS5003;74876;52.404;16.896;2024-03-23T01:30:09;22.83159600220623;22.83159600220623;8.353022927636426
84646;PMS5003;74876;52.404;16.896;2024-03-23T01:45:09;28.588958213176078;23.543847940262655;11.211356162029835
84646;PMS5003;74876;52.404;16.896;2024-03-23T02:00:09;28.0980249290823;28.0980249290823;11.707510387117624
84646;PMS5003;74876;52.404;16.896;2024-03-23T02:15:10;30.235119819743687;27.909341372071097;9.884558402608514
84646;PMS5003;74876;52.404;16.896;2024-03-23T02:30:09;38.793420848711285;29.759336541477154;11.159751203053933
84646;PMS5003;74876;52.404;16.896;2024-03-23T02:45:10;17.60821859408255;16.74928110168828;8.589374923942707
84646;PMS5003;74876;52.404;16.896;2024-03-23T03:05:10;24.90918727943385;21.473437309856767;7.300968685351301
84646;PMS5003;74876;52.404;16.896;2024-03-23T03:20:10;23.491677067930336;23.491677067930336;7.648452998861039
84646;PMS5003;74876;52.404;16.896;2024-03-23T03:35:09;27.098707963312144;23.780498824947394;10.507662271488384
84646;PMS5003;74876;52.404;16.896;2024-03-23T03:50:09;31.39179725368354;25.78611917266862;8.969084929623868
84646;PMS5003;74876;52.404;16.896;2024-03-23T04:05:10;32.897693095075425;29.308853848339925;11.962797489118337
84646;PMS5003;74876;52.404;16.896;2024-03-23T04:20:09;21.812957197483165;21.812957197483165;7.057133210950436
84646;PMS5003;74876;52.404;16.896;2024-03-23T04:35:09;13.121742891216124;8.201089307010077;3.280435722804031
84646;PMS5003;74876;52.404;16.896;2024-03-23T04:50:10;6.706075531844363;6.706075531844363;2.514778324441636
84646;PMS5003;74876;52.404;16.896;2024-03-23T05:05:10;8.121822026122867;8.121822026122867;2.4365466078368603
84646;PMS5003;74876;52.404;16.896;2024-03-23T05:20:09;8.13731734743159;8.13731734743159;2.4411952042294773
84646;PMS5003;74876;52.404;16.896;2024-03-23T05:35:09;9.926182581329774;9.926182581329774;3.308727527109925
84646;PMS5003;74876;52.404;16.896;2024-03-23T05:50:09;9.13154509179239;9.13154509179239;4.150702314451086
84646;PMS5003;74876;52.404;16.896;2024-03-23T06:05:10;4.955516164473717;4.955516164473717;1.6518387214912387
84646;PMS5003;74876;52.404;16.896;2024-03-23T06:20:10;16.78855610806471;9.233705859435592;3.3577112216129423
84646;PMS5003;74876;52.404;16.896;2024-03-23T06:35:09;17.500294088829648;13.333557401013064;3.333389350253266
84646;PMS5003;74876;52.404;16.896;2024-03-23T06:50:10;15.138368891903866;10.09224592793591;2.5230614819839774
84646;PMS5003;74876;52.404;16.896;2024-03-23T07:10:10;6.6954778437765885;6.6954778437765885;2.5108041914162205
84646;PMS5003;74876;52.404;16.896;2024-03-23T07:25:10;10.016425318491393;10.016425318491393;2.5041063296228483
84646;PMS5003;74876;52.404;16.896;2024-03-23T07:40:09;6.780117772155916;5.085088329116936;2.542544164558468
84646;PMS5003;74876;52.404;16.896;2024-03-23T07:55:10;15.910172959582313;13.398040387016685;6.699020193508343
84646;PMS5003;74876;52.404;16.896;2024-03-23T08:10:10;18.756211093937477;11.0832156464176;4.2627752486221535
84646;PMS5003;74876;52.404;16.896;2024-03-23T08:25:09;13.847123607154359;13.847123607154359;5.1926713526828845
84646;PMS5003;74876;52.404;16.896;2024-03-23T08:40:09;12.231340330607795;12.231340330607795;6.115670165303897
84646;PMS5003;74876;52.404;16.896;2024-03-23T08:55:10;15.72813158729463;15.72813158729463;6.99028070546428
84646;PMS5003;74876;52.404;16.896;2024-03-23T09:10:09;11.510149619160517;11.510149619160517;6.197772871855663
84646;PMS5003;74876;52.404;16.896;2024-03-23T09:25:10;17.679203865231713;12.375442705662199;4.419800966307928
84646;PMS5003;74876;52.404;16.896;2024-03-23T09:40:09;24.78801084402009;21.246866437731505;6.197002711005022
84646;PMS5003;74876;52.404;16.896;2024-03-23T09:55:10;10.576671535174592;10.576671535174592;4.406946472989413
84646;PMS5003;74876;52.404;16.896;2024-03-23T10:10:09;9.616815355609678;9.616815355609678;5.24553564851437
84646;PMS5003;74876;52.404;16.896;2024-03-23T10:25:10;11.32522679444222;11.32522679444222;4.3558564594008535
84646;PMS5003;74876;52.404;16.896;2024-03-23T10:40:09;17.32127797516054;17.32127797516054;3.4642555950321086
84646;PMS5003;74876;52.404;16.896;2024-03-23T10:55:09;11.928247055441757;7.668158821355416;3.4080705872690737
84646;PMS5003;74876;52.404;16.896;2024-03-23T11:10:10;8.67661678137273;8.67661678137273;3.4706467125490916
84646;PMS5003;74876;52.404;16.896;2024-03-23T11:25:09;24.008466319220535;20.451656494150825;9.7812270189417
84646;PMS5003;74876;52.404;16.896;2024-03-23T11:45:09;23.830841539126215;23.830841539126215;9.708861367792162
84646;PMS5003;74876;52.404;16.896;2024-03-23T12:00:10;12.304498909881032;12.304498909881032;4.394463896386083
84646;PMS5003;74876;52.404;16.896;2024-03-23T12:15:09;14.97210577889145;9.687833151047409;5.284272627844041
84646;PMS5003;74876;52.404;16.896;2024-03-23T12:35:09;12.12662297595734;12.12662297595734;3.4647494217020967
84646;PMS5003;74876;52.404;16.896;2024-03-23T12:50:10;11.2684423425456;11.2684423425456;6.067622799832246
84646;PMS5003;74876;52.404;16.896;2024-03-23T13:05:10;10.47975478920254;10.47975478920254;3.4932515964008464
84646;PMS5003;74876;52.404;16.896;2024-03-23T13:20:10;8.749597345866938;8.749597345866938;3.4998389383467754
84646;PMS5003;74876;52.404;16.896;2024-03-23T13:40:09;4.5052009379605495;4.5052009379605495;0.9010401875921099
84646;PMS5003;74876;52.404;16.896;2024-03-23T13:55:09;6.307281313144769;6.307281313144769;0.9010401875921099
84646;PMS5003;74876;52.404;16.896;2024-03-23T14:10:09;2.7096998047788894;2.7096998047788894;0.0
84646;PMS5003;74876;52.404;16.896;2024-03-23T14:25:09;4.504699168356047;4.504699168356047;0.9009398336712093
84646;PMS5003;74876;52.404;16.896;2024-03-23T14:45:10;4.417579470622903;4.417579470622903;0.8835158941245806
84646;PMS5003;74876;52.404;16.896;2024-03-23T15:00:10;6.107383301068109;6.107383301068109;2.6174499861720464
84646;PMS5003;74876;52.404;16.896;2024-03-23T15:15:10;8.66926162180822;8.66926162180822;2.600778486542466
84646;PMS5003;74876;52.404;16.896;2024-03-23T15:30:10;3.489457919977665;3.489457919977665;0.8723644799944162
84646;PMS5003;74876;52.404;16.896;2024-03-23T15:45:10;3.4334089221243884;3.4334089221243884;0.0
84646;PMS5003;74876;52.404;16.896;2024-03-23T16:00:10;7.713474047096732;7.713474047096732;3.428210687598547
84646;PMS5003;74876;52.404;16.896;2024-03-23T16:15:09;4.292408099042319;4.292408099042319;0.8584816198084639
84646;PMS5003;74876;52.404;16.896;2024-03-23T16:30:10;12.015118342848435;6.8657819101991056;1.7164454775497764
84646;PMS5003;74876;52.404;16.896;2024-03-23T16:45:10;8.596415408858851;8.596415408858851;0.8596415408858851
84646;PMS5003;74876;52.404;16.896;2024-03-23T17:00:09;4.321004337842934;4.321004337842934;1.7284017351371737
84646;PMS5003;74876;52.404;16.896;2024-03-23T17:20:10;6.888385237595936;5.166288928196952;2.583144464098476
84646;PMS5003;74876;52.404;16.896;2024-03-23T17:35:09;5.2067036786450895;5.2067036786450895;0.8677839464408482
84646;PMS5003;74876;52.404;16.896;2024-03-23T17:55:10;10.233877027976245;10.233877027976245;4.264115428323435
84646;PMS5003;74876;52.404;16.896;2024-03-23T18:10:10;8.514784584428117;8.514784584428117;3.405913833771247
84646;PMS5003;74876;52.404;16.896;2024-03-23T18:25:10;13.25744368175727;13.25744368175727;3.3143609204393174
84646;PMS5003;74876;52.404;16.896;2024-03-23T18:40:09;6.639888977809725;6.639888977809725;3.3199444889048624
84646;PMS5003;74876;52.404;16.896;2024-03-23T18:55:09;15.47065159104307;11.399427488137;5.6997137440685
84646;PMS5003;74876;52.404;16.896;2024-03-23T19:10:09;31.138973313784494;31.138973313784494;14.371833837131303
84646;PMS5003;74876;52.404;16.896;2024-03-23T19:25:09;25.999181421972562;22.059911509552474;8.666393807324187
84646;PMS5003;74876;52.404;16.896;2024-03-23T19:40:09;23.48073757972493;23.48073757972493;12.523060042519964
84646;PMS5003;74876;52.404;16.896;2024-03-23T19:55:09;21.475070513262796;21.475070513262796;10.737535256631398
84646;PMS5003;74876;52.404;16.896;2024-03-23T20:10:09;31.89009963369893;31.89009963369893;11.389321297749618
84646;PMS5003;74876;52.404;16.896;2024-03-23T20:25:09;27.696255017925033;23.95351785334057;8.982569195002714
84646;PMS5003;74876;52.404;16.896;2024-03-23T20:40:10;26.51912592111476;23.57255637432423;8.103066253673955
84646;PMS5003;74876;52.404;16.896;2024-03-23T20:55:09;19.13764930664371;19.13764930664371;7.3606343487091195
84646;PMS5003;74876;52.404;16.896;2024-03-23T21:10:10;22.727098918885567;22.727098918885567;12.463247794227568
84646;PMS5003;74876;52.404;16.896;2024-03-23T21:25:09;29.72070820872434;26.821126920068306;13.773011121116156
84646;PMS5003;74876;52.404;16.896;2024-03-23T21:40:09;37.32459146452293;33.09916601570902;22.535602393674225
84646;PMS5003;74876;52.404;16.896;2024-03-23T21:55:09;23.881456823609195;20.369477878960783;9.83354104501555
84646;PMS5003;74876;52.404;16.896;2024-03-23T22:10:09;17.319615831144475;17.319615831144475;8.313415598949348
84646;PMS5003;74876;52.404;16.896;2024-03-23T22:25:09;21.7163771116589;21.7163771116589;10.50792440886721
84646;PMS5003;74876;52.404;16.896;2024-03-23T22:40:10;12.689410727470362;12.689410727470362;5.639738101097938
84646;PMS5003;74876;52.404;16.896;2024-03-23T23:00:09;11.928082639060678;11.928082639060678;7.718171119392203
84646;PMS5003;74876;52.404;16.896;2024-03-23T23:15:10;12.168602387422473;12.168602387422473;5.010600983056313
84646;PMS5003;74876;52.404;16.896;2024-03-23T23:30:09;15.84930766383486;15.84930766383486;5.042961529402001
84646;PMS5003;74876;52.404;16.896;2024-03-23T23:50:09;13.51588520687738;13.51588520687738;6.402261413784022
